Etusivu
METAR-TAF:

METAR-TAF

Lentoasemat :

Pittsburgh, Pennsylvania, Yhdysvallat

Pittsburgh International Airport

Leveyspiiri: 40-30-14N, Pituuspiiri: 080-15-59W, korkeus merenpinnasta: 366 m

Tämänhetkinen sää

Tämä raportti tehtiin 1 tunti ja 4 minuuttia sitten, kello 10.51 UTC
tyyntä
Lämpötila 10°C
Kosteus 87%
Ilmanpaine 1026 hPa
Näkyvyys: 16.1 km
Muutamia pilviä 25000 ft:n korkeudessa

METAR: KPIT 221051Z 00000KT 10SM FEW250 10/08 A3029 RMK AO2 SLP265 T01000083

Aika: 07:55 (11:55 UTC)

Sääennuste

Tämä raportti tehtiin 35 minuuttia sitten, kello 11.20 UTC
Ennuste voimassa 22. päivästä klo 12 UTC - 23. päivään klo 18 UTC
Tuuli 5 kn etelästä/kaakosta
Näkyvyys: 10 km
Hajonneita pilviä 25000 ft:n korkeudessa
From 23. päivästä klo 1200 UTC
Tuuli 6 kn etelästä/kaakosta
Näkyvyys: 10 km
Hajonneita pilviä 4000 ft:n korkeudessa

TAF: KPIT 221120Z 2212/2318 15005KT P6SM BKN250 FM231200 15006KT P6SM BKN040

Säähavainnot ja -ennusteet yli 4000 lentoasemalta (METAR- ja TAF-raportit).

Käytössä olevat sääasemat on merkitty karttaan keltaisilla ja punaisilla pisteillä.

Aseta hiiri pisteen päälle nähdäksesi sääaseman nimen.

Klikkaa sitten nähdäksesi säähavainnot ja -ennusteet.

Kartan vaihtaminen: klikkaa mustalla rastilla varustettuja vihreitä pisteitä, niin voit zoomata sisään; viivalla varustettua vihreää pistettä, niin voit zoomata ulos tai vihreitä nuolia, niin pääset viereisille kartoille.


METAR-TAF: